FIN52V EFHK-EBBR
Flight info
| Callsign | FIN52V |
|---|---|
| Flight time | N/A |
| Altitude | 36000 |
| Route | NUNTO Y369 REKDO DCT KOSKA DCT BEDOS DCT AMRAK DCT EEL DCT EKNON DCT SUSET Z310 BATAK Z311 BEKEM |
| Aircraft | A321/M-SDE3FGHIRWY/LB1 |
Departure
| Time | 2026-05-07 18:38 |
|---|---|
| Airport | Helsinki Vantaa Airport (EFHK) |
Arrival
| Time | N/A |
|---|---|
| Airport | Brussels Airport (EBBR) |
| Time | Latitude | Longitude | Altitude | Speed | Heading |
|---|---|---|---|---|---|
| 2026-05-07 18:05 | 60.31874 | 24.96540 | 167 ft | 0 kts | 137° |
| 2026-05-07 18:26 | 60.31891 | 24.96510 | 167 ft | 4 kts | 145° |
| 2026-05-07 18:26 | 60.31914 | 24.96486 | 167 ft | 4 kts | 174° |
| 2026-05-07 18:27 | 60.31933 | 24.96496 | 167 ft | 3 kts | 228° |
| 2026-05-07 18:27 | 60.31951 | 24.96535 | 167 ft | 4 kts | 227° |
| 2026-05-07 18:27 | 60.31955 | 24.96544 | 167 ft | 0 kts | 227° |
| 2026-05-07 18:30 | 60.31951 | 24.96535 | 167 ft | 4 kts | 227° |
| 2026-05-07 18:30 | 60.31911 | 24.96447 | 167 ft | 10 kts | 227° |
| 2026-05-07 18:30 | 60.31863 | 24.96331 | 167 ft | 11 kts | 240° |
| 2026-05-07 18:30 | 60.31863 | 24.96167 | 167 ft | 13 kts | 293° |
| 2026-05-07 18:31 | 60.31925 | 24.96035 | 168 ft | 13 kts | 317° |
| 2026-05-07 18:31 | 60.31981 | 24.95931 | 172 ft | 10 kts | 317° |
| 2026-05-07 18:31 | 60.31989 | 24.95916 | 172 ft | 0 kts | 317° |
| 2026-05-07 18:31 | 60.32009 | 24.95879 | 173 ft | 11 kts | 317° |
| 2026-05-07 18:32 | 60.32105 | 24.95698 | 173 ft | 26 kts | 316° |
| 2026-05-07 18:32 | 60.32241 | 24.95448 | 175 ft | 27 kts | 318° |
| 2026-05-07 18:32 | 60.32390 | 24.95241 | 178 ft | 26 kts | 339° |
| 2026-05-07 18:32 | 60.32521 | 24.95152 | 180 ft | 18 kts | 341° |
| 2026-05-07 18:33 | 60.32642 | 24.95073 | 180 ft | 19 kts | 342° |
| 2026-05-07 18:33 | 60.32776 | 24.94989 | 177 ft | 22 kts | 343° |
| 2026-05-07 18:33 | 60.32911 | 24.94879 | 176 ft | 19 kts | 322° |
| 2026-05-07 18:33 | 60.33004 | 24.94710 | 180 ft | 16 kts | 317° |
| 2026-05-07 18:34 | 60.33061 | 24.94603 | 188 ft | 0 kts | 317° |
| 2026-05-07 18:35 | 60.33063 | 24.94599 | 189 ft | 4 kts | 317° |
| 2026-05-07 18:35 | 60.33113 | 24.94501 | 196 ft | 11 kts | 306° |
| 2026-05-07 18:36 | 60.33104 | 24.94368 | 199 ft | 11 kts | 233° |
| 2026-05-07 18:36 | 60.33092 | 24.94342 | 194 ft | 0 kts | 228° |
| 2026-05-07 18:36 | 60.33092 | 24.94340 | 194 ft | 1 kts | 228° |
| 2026-05-07 18:37 | 60.33075 | 24.94303 | 197 ft | 11 kts | 228° |
| 2026-05-07 18:37 | 60.32832 | 24.93768 | 181 ft | 91 kts | 227° |
| 2026-05-07 18:37 | 60.32249 | 24.92490 | 173 ft | 153 kts | 227° |
| 2026-05-07 18:37 | 60.31474 | 24.90777 | 561 ft | 172 kts | 226° |
| 2026-05-07 18:38 | 60.30679 | 24.88995 | 1359 ft | 172 kts | 231° |
| 2026-05-07 18:38 | 60.30059 | 24.86822 | 1852 ft | 188 kts | 252° |
| 2026-05-07 18:38 | 60.29830 | 24.84091 | 2103 ft | 209 kts | 273° |
| 2026-05-07 18:38 | 60.30106 | 24.81044 | 2404 ft | 233 kts | 286° |
| 2026-05-07 18:39 | 60.30291 | 24.77688 | 2957 ft | 251 kts | 262° |
| 2026-05-07 18:39 | 60.29726 | 24.74294 | 3744 ft | 259 kts | 251° |
| 2026-05-07 18:39 | 60.29038 | 24.70911 | 4605 ft | 262 kts | 250° |
| 2026-05-07 18:39 | 60.28330 | 24.67496 | 5465 ft | 266 kts | 250° |
| 2026-05-07 18:40 | 60.27611 | 24.64037 | 6328 ft | 269 kts | 249° |
| 2026-05-07 18:40 | 60.26885 | 24.60534 | 7191 ft | 271 kts | 249° |
| 2026-05-07 18:40 | 60.26157 | 24.57019 | 8061 ft | 272 kts | 249° |
| 2026-05-07 18:40 | 60.25428 | 24.53493 | 8976 ft | 273 kts | 249° |
| 2026-05-07 18:41 | 60.24699 | 24.49956 | 9870 ft | 274 kts | 249° |
| 2026-05-07 18:41 | 60.23871 | 24.46458 | 10515 ft | 285 kts | 244° |
| 2026-05-07 18:41 | 60.22898 | 24.42790 | 10742 ft | 308 kts | 244° |
| 2026-05-07 18:41 | 60.21860 | 24.38931 | 11256 ft | 318 kts | 244° |
| 2026-05-07 18:42 | 60.20809 | 24.35056 | 12002 ft | 321 kts | 244° |
| 2026-05-07 18:42 | 60.19736 | 24.31113 | 12800 ft | 322 kts | 244° |
| 2026-05-07 18:42 | 60.18657 | 24.27141 | 13587 ft | 323 kts | 244° |
| 2026-05-07 18:42 | 60.17581 | 24.23175 | 14334 ft | 325 kts | 245° |
| 2026-05-07 18:43 | 60.16497 | 24.19183 | 15050 ft | 326 kts | 245° |
| 2026-05-07 18:43 | 60.15414 | 24.15190 | 15784 ft | 327 kts | 245° |
| 2026-05-07 18:43 | 60.14323 | 24.11161 | 16533 ft | 328 kts | 245° |
| 2026-05-07 18:43 | 60.13232 | 24.07149 | 17265 ft | 329 kts | 245° |
| 2026-05-07 18:44 | 60.12131 | 24.03115 | 18011 ft | 330 kts | 245° |
| 2026-05-07 18:44 | 60.11024 | 23.99079 | 18691 ft | 332 kts | 245° |
| 2026-05-07 18:44 | 60.09907 | 23.95013 | 19310 ft | 333 kts | 245° |
| 2026-05-07 18:44 | 60.08789 | 23.90943 | 19960 ft | 334 kts | 245° |
| 2026-05-07 18:45 | 60.07668 | 23.86842 | 20586 ft | 336 kts | 245° |
| 2026-05-07 18:45 | 60.06571 | 23.82701 | 21144 ft | 338 kts | 246° |
| 2026-05-07 18:45 | 60.05482 | 23.78505 | 21693 ft | 341 kts | 246° |
| 2026-05-07 18:45 | 60.04388 | 23.74270 | 22257 ft | 344 kts | 246° |
| 2026-05-07 18:46 | 60.03280 | 23.70001 | 22852 ft | 347 kts | 246° |
| 2026-05-07 18:46 | 60.02540 | 23.67160 | 23234 ft | 348 kts | 246° |
| 2026-05-07 18:46 | 60.01417 | 23.62862 | 23774 ft | 350 kts | 246° |
| 2026-05-07 18:46 | 60.00279 | 23.58533 | 24217 ft | 352 kts | 245° |
| 2026-05-07 18:47 | 59.99132 | 23.54197 | 24669 ft | 355 kts | 245° |
| 2026-05-07 18:47 | 59.97971 | 23.49831 | 25093 ft | 357 kts | 245° |
| 2026-05-07 18:47 | 59.96804 | 23.45439 | 25515 ft | 359 kts | 245° |
| 2026-05-07 18:47 | 59.95626 | 23.41020 | 25920 ft | 362 kts | 245° |
| 2026-05-07 18:48 | 59.94439 | 23.36575 | 26334 ft | 364 kts | 245° |
| 2026-05-07 18:48 | 59.93246 | 23.32105 | 26751 ft | 367 kts | 245° |
| 2026-05-07 18:48 | 59.92042 | 23.27608 | 27149 ft | 369 kts | 245° |
| 2026-05-07 18:48 | 59.90826 | 23.23072 | 27537 ft | 371 kts | 245° |
| 2026-05-07 18:49 | 59.89604 | 23.18523 | 27922 ft | 374 kts | 245° |
| 2026-05-07 18:49 | 59.88368 | 23.13943 | 28298 ft | 376 kts | 245° |
| 2026-05-07 18:49 | 59.87124 | 23.09343 | 28583 ft | 380 kts | 244° |
| 2026-05-07 18:49 | 59.85865 | 23.04691 | 28907 ft | 383 kts | 244° |
| 2026-05-07 18:50 | 59.84596 | 23.00007 | 29264 ft | 386 kts | 244° |
| 2026-05-07 18:50 | 59.83317 | 22.95295 | 29617 ft | 388 kts | 244° |
| 2026-05-07 18:50 | 59.82028 | 22.90562 | 29990 ft | 391 kts | 245° |
| 2026-05-07 18:50 | 59.80727 | 22.85795 | 30319 ft | 393 kts | 245° |
| 2026-05-07 18:51 | 59.79417 | 22.81003 | 30604 ft | 396 kts | 245° |
| 2026-05-07 18:51 | 59.78101 | 22.76192 | 30882 ft | 398 kts | 245° |
| 2026-05-07 18:51 | 59.76773 | 22.71350 | 31159 ft | 401 kts | 245° |
| 2026-05-07 18:51 | 59.75455 | 22.66546 | 31435 ft | 403 kts | 244° |
| 2026-05-07 18:52 | 59.74111 | 22.61657 | 31803 ft | 403 kts | 244° |
| 2026-05-07 18:52 | 59.72769 | 22.56790 | 32188 ft | 403 kts | 244° |
| 2026-05-07 18:52 | 59.71417 | 22.51916 | 32557 ft | 403 kts | 244° |
| 2026-05-07 18:52 | 59.70063 | 22.47051 | 32928 ft | 403 kts | 244° |
| 2026-05-07 18:53 | 59.68708 | 22.42190 | 33286 ft | 403 kts | 244° |
| 2026-05-07 18:53 | 59.67352 | 22.37325 | 33638 ft | 403 kts | 244° |
| 2026-05-07 18:53 | 59.65998 | 22.32470 | 33990 ft | 403 kts | 244° |
| 2026-05-07 18:53 | 59.64644 | 22.27617 | 34303 ft | 403 kts | 244° |
| 2026-05-07 18:54 | 59.63285 | 22.22760 | 34577 ft | 404 kts | 244° |
| 2026-05-07 18:54 | 59.61923 | 22.17903 | 34851 ft | 404 kts | 244° |
| 2026-05-07 18:54 | 59.60558 | 22.13043 | 35108 ft | 405 kts | 244° |
| 2026-05-07 18:54 | 59.59187 | 22.08181 | 35383 ft | 405 kts | 243° |
| 2026-05-07 18:55 | 59.57814 | 22.03329 | 35640 ft | 405 kts | 243° |
| 2026-05-07 18:55 | 59.56436 | 21.98472 | 35942 ft | 406 kts | 243° |
| 2026-05-07 18:55 | 59.55051 | 21.93605 | 36113 ft | 407 kts | 243° |
| 2026-05-07 18:56 | 59.52284 | 21.83916 | 36154 ft | 404 kts | 243° |
| 2026-05-07 18:56 | 59.49540 | 21.74320 | 36164 ft | 404 kts | 243° |
| 2026-05-07 18:57 | 59.46781 | 21.64692 | 36164 ft | 404 kts | 243° |
| 2026-05-07 18:57 | 59.44006 | 21.55074 | 36166 ft | 404 kts | 243° |
| 2026-05-07 18:58 | 59.41233 | 21.45474 | 36167 ft | 404 kts | 243° |
| 2026-05-07 18:58 | 59.38444 | 21.35880 | 36175 ft | 405 kts | 243° |
| 2026-05-07 18:59 | 59.35642 | 21.26283 | 36179 ft | 405 kts | 243° |
| 2026-05-07 18:59 | 59.32865 | 21.16778 | 36179 ft | 405 kts | 243° |
| 2026-05-07 19:00 | 59.30051 | 21.07210 | 36147 ft | 405 kts | 243° |
| 2026-05-07 19:00 | 59.27225 | 20.97655 | 36179 ft | 406 kts | 243° |
| 2026-05-07 19:01 | 59.24397 | 20.88109 | 36184 ft | 406 kts | 243° |
| 2026-05-07 19:01 | 59.21560 | 20.78566 | 36186 ft | 406 kts | 243° |
| 2026-05-07 19:02 | 59.18703 | 20.69039 | 36188 ft | 407 kts | 243° |
| 2026-05-07 19:02 | 59.15873 | 20.59485 | 36191 ft | 407 kts | 243° |
| 2026-05-07 19:03 | 59.13081 | 20.49911 | 36191 ft | 407 kts | 243° |
| 2026-05-07 19:03 | 59.10284 | 20.40334 | 36158 ft | 407 kts | 243° |
| 2026-05-07 19:04 | 59.07466 | 20.30775 | 36173 ft | 408 kts | 243° |
| 2026-05-07 19:04 | 59.04648 | 20.21278 | 36181 ft | 408 kts | 243° |
| 2026-05-07 19:05 | 59.01800 | 20.11714 | 36209 ft | 409 kts | 243° |
| 2026-05-07 19:05 | 58.98949 | 20.02185 | 36208 ft | 408 kts | 243° |
| 2026-05-07 19:06 | 58.96085 | 19.92663 | 36202 ft | 408 kts | 243° |
| 2026-05-07 19:06 | 58.91780 | 19.78425 | 36164 ft | 408 kts | 242° |
| 2026-05-07 19:07 | 58.88904 | 19.68949 | 36170 ft | 409 kts | 242° |
| 2026-05-07 19:07 | 58.86014 | 19.59470 | 36179 ft | 409 kts | 242° |
| 2026-05-07 19:08 | 58.83116 | 19.49989 | 36184 ft | 410 kts | 242° |
| 2026-05-07 19:08 | 58.80215 | 19.40526 | 36190 ft | 410 kts | 242° |
| 2026-05-07 19:09 | 58.77303 | 19.31074 | 36192 ft | 410 kts | 242° |
| 2026-05-07 19:09 | 58.74396 | 19.21697 | 36204 ft | 410 kts | 242° |
| 2026-05-07 19:10 | 58.71463 | 19.12283 | 36166 ft | 411 kts | 242° |
| 2026-05-07 19:10 | 58.68517 | 19.02848 | 36165 ft | 412 kts | 242° |
| 2026-05-07 19:11 | 58.65564 | 18.93407 | 36171 ft | 412 kts | 242° |
| 2026-05-07 19:11 | 58.62594 | 18.83968 | 36177 ft | 413 kts | 242° |
| 2026-05-07 19:12 | 58.59616 | 18.74550 | 36182 ft | 413 kts | 242° |
| 2026-05-07 19:12 | 58.56634 | 18.65140 | 36185 ft | 413 kts | 242° |
| 2026-05-07 19:13 | 58.53640 | 18.55746 | 36153 ft | 413 kts | 241° |
| 2026-05-07 19:13 | 58.50652 | 18.46411 | 36154 ft | 414 kts | 241° |
| 2026-05-07 19:14 | 58.47626 | 18.36992 | 36158 ft | 416 kts | 241° |
| 2026-05-07 19:14 | 58.44586 | 18.27564 | 36162 ft | 417 kts | 241° |
| 2026-05-07 19:15 | 58.41539 | 18.18137 | 36170 ft | 417 kts | 241° |
| 2026-05-07 19:15 | 58.38483 | 18.08724 | 36181 ft | 418 kts | 241° |
| 2026-05-07 19:16 | 58.35409 | 17.99303 | 36183 ft | 418 kts | 241° |
| 2026-05-07 19:16 | 58.32335 | 17.89916 | 36158 ft | 418 kts | 240° |
| 2026-05-07 19:17 | 58.29268 | 17.80579 | 36159 ft | 419 kts | 240° |
| 2026-05-07 19:17 | 58.26166 | 17.71170 | 36166 ft | 420 kts | 240° |
| 2026-05-07 19:18 | 58.23047 | 17.61781 | 36166 ft | 421 kts | 240° |
| 2026-05-07 19:18 | 58.19918 | 17.52399 | 36174 ft | 421 kts | 240° |
| 2026-05-07 19:19 | 58.16788 | 17.43035 | 36191 ft | 421 kts | 240° |
| 2026-05-07 19:19 | 58.13666 | 17.33718 | 36192 ft | 421 kts | 240° |
| 2026-05-07 19:20 | 58.10516 | 17.24361 | 36164 ft | 422 kts | 239° |
| 2026-05-07 19:20 | 58.07353 | 17.15004 | 36167 ft | 423 kts | 239° |
| 2026-05-07 19:21 | 58.04174 | 17.05632 | 36174 ft | 424 kts | 239° |
| 2026-05-07 19:21 | 58.00984 | 16.96272 | 36179 ft | 424 kts | 239° |
| 2026-05-07 19:22 | 57.97785 | 16.86914 | 36185 ft | 424 kts | 239° |
| 2026-05-07 19:22 | 57.94580 | 16.77564 | 36188 ft | 425 kts | 239° |
| 2026-05-07 19:23 | 57.91361 | 16.68239 | 36178 ft | 425 kts | 239° |
| 2026-05-07 19:23 | 57.88130 | 16.58905 | 36174 ft | 426 kts | 239° |
| 2026-05-07 19:24 | 57.84890 | 16.49579 | 36176 ft | 427 kts | 239° |
| 2026-05-07 19:24 | 57.81651 | 16.40305 | 36180 ft | 428 kts | 239° |
| 2026-05-07 19:25 | 57.78376 | 16.30980 | 36184 ft | 428 kts | 238° |
| 2026-05-07 19:25 | 57.75100 | 16.21666 | 36179 ft | 428 kts | 238° |
| 2026-05-07 19:26 | 57.71818 | 16.12355 | 36187 ft | 428 kts | 238° |
| 2026-05-07 19:26 | 57.68530 | 16.03065 | 36181 ft | 428 kts | 238° |
| 2026-05-07 19:27 | 57.65262 | 15.93860 | 36188 ft | 428 kts | 238° |
| 2026-05-07 19:27 | 57.61963 | 15.84608 | 36191 ft | 428 kts | 238° |
| 2026-05-07 19:28 | 57.58646 | 15.75383 | 36183 ft | 428 kts | 238° |
| 2026-05-07 19:28 | 57.55320 | 15.66155 | 36186 ft | 428 kts | 238° |
| 2026-05-07 19:29 | 57.52000 | 15.56939 | 36183 ft | 428 kts | 238° |
| 2026-05-07 19:29 | 57.48670 | 15.47733 | 36156 ft | 429 kts | 238° |
| 2026-05-07 19:30 | 57.45321 | 15.38546 | 36158 ft | 430 kts | 237° |
| 2026-05-07 19:30 | 57.41959 | 15.29373 | 36155 ft | 430 kts | 237° |
| 2026-05-07 19:31 | 57.38615 | 15.20259 | 36148 ft | 430 kts | 237° |